Overview Statistics Trail Chart Weather Telemetry Raw packets
 

This is the latest recevied weather packets stored in our database for station/object KF6FPU-15. If no packets are shown the sender has not sent any weather packets the latest 10 day(s).

<< 11 12 13 14 15 16 17 >>
Time Temp. Humidity Pressure Rain* Wind** Luminosity Snow
1788471779 41.67° C 18% 1012.6 hPa - - - -
1788471179 41.11° C 18% 1012.7 hPa - - - -
1788470579 41.11° C 18% 1012.7 hPa - - - -
1788469379 41.11° C 18% 1012.9 hPa - - - -
1788468779 40.56° C 18% 1013 hPa - - - -
1788468179 40.56° C 18% 1013 hPa - - - -
1788467579 40° C 18% 1013.1 hPa - - - -
1788466979 40° C 18% 1013.1 hPa - - - -
1788466379 39.44° C 18% 1013.2 hPa - - - -
1788465779 38.89° C 18% 1013.3 hPa - - - -
1788465179 38.33° C 18% 1013.4 hPa - - - -
1788464579 37.78° C 18% 1013.5 hPa - - - -
1788463990 36.67° C 18% 1013.7 hPa - - - -
1788462779 31.67° C 20% 1014 hPa - - - -
1788462179 31.67° C 20% 1014 hPa - - - -
1788461579 31.67° C 20% 1014.1 hPa - - - -
1788460979 31.11° C 20% 1014.1 hPa - - - -
1788460379 31.11° C 20% 1014.1 hPa - - - -
1788459779 31.11° C 20% 1014.1 hPa - - - -
1788459179 31.11° C 20% 1014.2 hPa - - - -
1788458579 30.56° C 20% 1014.1 hPa - - - -
1788457979 30.56° C 20% 1014.1 hPa - - - -
1788457379 30.56° C 20% 1014.1 hPa - - - -
1788456179 30° C 20% 1014.2 hPa - - - -
1788455579 30° C 20% 1014.3 hPa - - - -

* Rain since midnight (hover to see other rain measurements)
** Current wind speed in m/s (hover to see current wind gust speed)